sensor_id;sensor_type;location;lat;lon;timestamp;P1;durP1;ratioP1;P2;durP2;ratioP2
70733;SDS011;58320;48.804;9.252;2024-03-06T00:02:07;19.23;;;11.25;;
70733;SDS011;58320;48.804;9.252;2024-03-06T00:04:33;19.95;;;11.27;;
70733;SDS011;58320;48.804;9.252;2024-03-06T00:06:59;19.37;;;11.00;;
70733;SDS011;58320;48.804;9.252;2024-03-06T00:09:26;20.45;;;9.90;;
70733;SDS011;58320;48.804;9.252;2024-03-06T00:11:52;17.38;;;10.95;;
70733;SDS011;58320;48.804;9.252;2024-03-06T00:14:19;20.25;;;10.77;;
70733;SDS011;58320;48.804;9.252;2024-03-06T00:16:48;19.52;;;10.13;;
70733;SDS011;58320;48.804;9.252;2024-03-06T00:19:20;19.10;;;10.20;;
70733;SDS011;58320;48.804;9.252;2024-03-06T00:21:46;18.20;;;9.52;;
70733;SDS011;58320;48.804;9.252;2024-03-06T00:24:13;19.05;;;10.05;;
70733;SDS011;58320;48.804;9.252;2024-03-06T00:26:40;16.10;;;9.73;;
70733;SDS011;58320;48.804;9.252;2024-03-06T00:29:06;14.77;;;8.60;;
70733;SDS011;58320;48.804;9.252;2024-03-06T00:31:32;15.82;;;9.55;;
70733;SDS011;58320;48.804;9.252;2024-03-06T00:33:58;16.25;;;9.65;;
70733;SDS011;58320;48.804;9.252;2024-03-06T00:36:23;14.43;;;8.37;;
70733;SDS011;58320;48.804;9.252;2024-03-06T00:38:49;14.05;;;7.97;;
70733;SDS011;58320;48.804;9.252;2024-03-06T00:41:15;13.13;;;8.30;;
70733;SDS011;58320;48.804;9.252;2024-03-06T00:43:41;14.32;;;7.68;;
70733;SDS011;58320;48.804;9.252;2024-03-06T00:46:07;15.27;;;8.45;;
70733;SDS011;58320;48.804;9.252;2024-03-06T00:48:32;18.03;;;7.83;;
70733;SDS011;58320;48.804;9.252;2024-03-06T00:50:58;14.10;;;8.45;;
70733;SDS011;58320;48.804;9.252;2024-03-06T00:53:24;13.53;;;7.97;;
70733;SDS011;58320;48.804;9.252;2024-03-06T00:55:49;15.82;;;8.18;;
70733;SDS011;58320;48.804;9.252;2024-03-06T00:58:15;13.97;;;7.83;;
70733;SDS011;58320;48.804;9.252;2024-03-06T01:00:41;12.07;;;7.13;;
70733;SDS011;58320;48.804;9.252;2024-03-06T01:03:06;12.93;;;7.50;;
70733;SDS011;58320;48.804;9.252;2024-03-06T01:05:32;12.95;;;7.90;;
70733;SDS011;58320;48.804;9.252;2024-03-06T01:07:58;13.23;;;7.90;;
70733;SDS011;58320;48.804;9.252;2024-03-06T01:10:24;13.10;;;7.95;;
70733;SDS011;58320;48.804;9.252;2024-03-06T01:12:50;12.43;;;7.45;;
70733;SDS011;58320;48.804;9.252;2024-03-06T01:15:16;12.60;;;7.07;;
70733;SDS011;58320;48.804;9.252;2024-03-06T01:17:41;13.75;;;7.38;;
70733;SDS011;58320;48.804;9.252;2024-03-06T01:20:08;12.15;;;7.43;;
70733;SDS011;58320;48.804;9.252;2024-03-06T01:22:34;12.27;;;7.50;;
70733;SDS011;58320;48.804;9.252;2024-03-06T01:25:00;12.67;;;6.70;;
70733;SDS011;58320;48.804;9.252;2024-03-06T01:27:26;15.80;;;7.28;;
70733;SDS011;58320;48.804;9.252;2024-03-06T01:29:52;11.23;;;6.70;;
70733;SDS011;58320;48.804;9.252;2024-03-06T01:32:18;12.17;;;6.80;;
70733;SDS011;58320;48.804;9.252;2024-03-06T01:34:44;15.60;;;7.53;;
70733;SDS011;58320;48.804;9.252;2024-03-06T01:37:09;13.00;;;6.90;;
70733;SDS011;58320;48.804;9.252;2024-03-06T01:39:35;11.05;;;6.03;;
70733;SDS011;58320;48.804;9.252;2024-03-06T01:42:01;10.80;;;6.45;;
70733;SDS011;58320;48.804;9.252;2024-03-06T01:44:28;11.20;;;6.32;;
70733;SDS011;58320;48.804;9.252;2024-03-06T01:46:54;12.03;;;6.63;;
70733;SDS011;58320;48.804;9.252;2024-03-06T01:49:20;11.70;;;6.00;;
70733;SDS011;58320;48.804;9.252;2024-03-06T01:51:51;11.05;;;6.30;;
70733;SDS011;58320;48.804;9.252;2024-03-06T01:54:19;13.85;;;5.88;;
70733;SDS011;58320;48.804;9.252;2024-03-06T01:56:45;11.55;;;6.78;;
70733;SDS011;58320;48.804;9.252;2024-03-06T01:59:13;15.93;;;7.77;;
70733;SDS011;58320;48.804;9.252;2024-03-06T02:01:40;15.55;;;7.57;;
70733;SDS011;58320;48.804;9.252;2024-03-06T02:04:09;12.60;;;7.75;;
70733;SDS011;58320;48.804;9.252;2024-03-06T02:06:40;15.38;;;8.48;;
70733;SDS011;58320;48.804;9.252;2024-03-06T02:09:06;13.60;;;8.60;;
70733;SDS011;58320;48.804;9.252;2024-03-06T02:11:34;15.75;;;9.25;;
70733;SDS011;58320;48.804;9.252;2024-03-06T02:14:03;14.00;;;8.93;;
70733;SDS011;58320;48.804;9.252;2024-03-06T02:16:34;15.80;;;9.30;;
70733;SDS011;58320;48.804;9.252;2024-03-06T02:19:01;15.88;;;9.95;;
70733;SDS011;58320;48.804;9.252;2024-03-06T02:21:28;15.37;;;9.00;;
70733;SDS011;58320;48.804;9.252;2024-03-06T02:23:54;13.30;;;9.23;;
70733;SDS011;58320;48.804;9.252;2024-03-06T02:26:20;15.27;;;9.67;;
70733;SDS011;58320;48.804;9.252;2024-03-06T02:28:50;14.13;;;9.27;;
70733;SDS011;58320;48.804;9.252;2024-03-06T02:31:17;17.40;;;9.60;;
70733;SDS011;58320;48.804;9.252;2024-03-06T02:33:44;12.70;;;8.38;;
70733;SDS011;58320;48.804;9.252;2024-03-06T02:36:14;15.00;;;9.32;;
70733;SDS011;58320;48.804;9.252;2024-03-06T02:38:41;16.57;;;9.47;;
70733;SDS011;58320;48.804;9.252;2024-03-06T02:41:08;13.98;;;9.18;;
70733;SDS011;58320;48.804;9.252;2024-03-06T02:43:35;16.42;;;8.85;;
70733;SDS011;58320;48.804;9.252;2024-03-06T02:46:01;12.13;;;8.00;;
70733;SDS011;58320;48.804;9.252;2024-03-06T02:48:28;14.18;;;7.78;;
70733;SDS011;58320;48.804;9.252;2024-03-06T02:50:54;12.90;;;6.70;;
70733;SDS011;58320;48.804;9.252;2024-03-06T02:53:20;12.13;;;7.32;;
70733;SDS011;58320;48.804;9.252;2024-03-06T02:55:47;10.65;;;6.88;;
70733;SDS011;58320;48.804;9.252;2024-03-06T02:58:12;10.90;;;6.30;;
70733;SDS011;58320;48.804;9.252;2024-03-06T03:00:41;13.60;;;6.40;;
70733;SDS011;58320;48.804;9.252;2024-03-06T03:03:08;12.07;;;6.72;;
70733;SDS011;58320;48.804;9.252;2024-03-06T03:05:35;10.15;;;6.47;;
70733;SDS011;58320;48.804;9.252;2024-03-06T03:08:01;9.88;;;6.20;;
70733;SDS011;58320;48.804;9.252;2024-03-06T03:10:28;11.30;;;6.37;;
70733;SDS011;58320;48.804;9.252;2024-03-06T03:12:54;10.32;;;5.80;;
70733;SDS011;58320;48.804;9.252;2024-03-06T03:15:20;10.70;;;6.28;;
70733;SDS011;58320;48.804;9.252;2024-03-06T03:17:46;9.93;;;6.27;;
70733;SDS011;58320;48.804;9.252;2024-03-06T03:20:12;10.05;;;6.32;;
70733;SDS011;58320;48.804;9.252;2024-03-06T03:22:41;10.40;;;6.03;;
70733;SDS011;58320;48.804;9.252;2024-03-06T03:25:07;9.60;;;5.57;;
70733;SDS011;58320;48.804;9.252;2024-03-06T03:27:37;12.53;;;5.97;;
70733;SDS011;58320;48.804;9.252;2024-03-06T03:30:09;9.32;;;5.07;;
70733;SDS011;58320;48.804;9.252;2024-03-06T03:32:36;7.90;;;5.53;;
70733;SDS011;58320;48.804;9.252;2024-03-06T03:35:05;9.55;;;5.93;;
70733;SDS011;58320;48.804;9.252;2024-03-06T03:37:32;9.77;;;6.00;;
70733;SDS011;58320;48.804;9.252;2024-03-06T03:39:58;9.67;;;5.60;;
70733;SDS011;58320;48.804;9.252;2024-03-06T03:42:24;9.93;;;5.57;;
70733;SDS011;58320;48.804;9.252;2024-03-06T03:44:50;10.02;;;6.47;;
70733;SDS011;58320;48.804;9.252;2024-03-06T03:47:16;9.07;;;5.87;;
70733;SDS011;58320;48.804;9.252;2024-03-06T03:49:41;6.95;;;4.95;;
70733;SDS011;58320;48.804;9.252;2024-03-06T03:52:07;7.67;;;5.30;;
70733;SDS011;58320;48.804;9.252;2024-03-06T03:54:33;8.77;;;5.43;;
70733;SDS011;58320;48.804;9.252;2024-03-06T03:56:59;7.82;;;4.97;;
70733;SDS011;58320;48.804;9.252;2024-03-06T03:59:25;8.97;;;5.10;;
70733;SDS011;58320;48.804;9.252;2024-03-06T04:03:52;8.07;;;6.10;;
70733;SDS011;58320;48.804;9.252;2024-03-06T04:06:17;8.63;;;4.88;;
70733;SDS011;58320;48.804;9.252;2024-03-06T04:08:43;7.30;;;4.33;;
70733;SDS011;58320;48.804;9.252;2024-03-06T04:11:09;8.50;;;5.05;;
70733;SDS011;58320;48.804;9.252;2024-03-06T04:13:36;7.93;;;4.68;;
70733;SDS011;58320;48.804;9.252;2024-03-06T04:16:03;8.52;;;5.20;;
70733;SDS011;58320;48.804;9.252;2024-03-06T04:18:31;8.83;;;4.70;;
70733;SDS011;58320;48.804;9.252;2024-03-06T04:20:59;7.78;;;5.07;;
70733;SDS011;58320;48.804;9.252;2024-03-06T04:23:31;8.25;;;5.00;;
70733;SDS011;58320;48.804;9.252;2024-03-06T04:25:58;8.95;;;4.82;;
70733;SDS011;58320;48.804;9.252;2024-03-06T04:28:25;7.70;;;4.68;;
70733;SDS011;58320;48.804;9.252;2024-03-06T04:30:51;8.57;;;4.67;;
70733;SDS011;58320;48.804;9.252;2024-03-06T04:33:16;8.10;;;5.15;;
70733;SDS011;58320;48.804;9.252;2024-03-06T04:35:42;8.47;;;5.10;;
70733;SDS011;58320;48.804;9.252;2024-03-06T04:38:08;7.15;;;4.88;;
70733;SDS011;58320;48.804;9.252;2024-03-06T04:40:33;11.93;;;5.57;;
70733;SDS011;58320;48.804;9.252;2024-03-06T04:42:59;8.65;;;4.30;;
70733;SDS011;58320;48.804;9.252;2024-03-06T04:45:26;7.10;;;4.53;;
70733;SDS011;58320;48.804;9.252;2024-03-06T04:47:53;9.27;;;5.43;;
70733;SDS011;58320;48.804;9.252;2024-03-06T04:50:19;8.93;;;4.77;;
70733;SDS011;58320;48.804;9.252;2024-03-06T04:52:45;9.55;;;5.07;;
70733;SDS011;58320;48.804;9.252;2024-03-06T04:55:11;7.75;;;4.70;;
70733;SDS011;58320;48.804;9.252;2024-03-06T04:57:38;8.87;;;5.40;;
70733;SDS011;58320;48.804;9.252;2024-03-06T05:00:05;9.27;;;4.90;;
70733;SDS011;58320;48.804;9.252;2024-03-06T05:02:33;7.93;;;5.43;;
70733;SDS011;58320;48.804;9.252;2024-03-06T05:05:00;9.00;;;4.97;;
70733;SDS011;58320;48.804;9.252;2024-03-06T05:07:30;8.27;;;5.57;;
70733;SDS011;58320;48.804;9.252;2024-03-06T05:09:57;8.27;;;4.97;;
70733;SDS011;58320;48.804;9.252;2024-03-06T05:12:23;8.95;;;5.22;;
70733;SDS011;58320;48.804;9.252;2024-03-06T05:14:53;9.48;;;5.43;;
70733;SDS011;58320;48.804;9.252;2024-03-06T05:17:20;9.52;;;5.35;;
70733;SDS011;58320;48.804;9.252;2024-03-06T05:19:46;10.25;;;5.20;;
70733;SDS011;58320;48.804;9.252;2024-03-06T05:22:14;9.00;;;5.07;;
70733;SDS011;58320;48.804;9.252;2024-03-06T05:24:40;9.57;;;5.07;;
70733;SDS011;58320;48.804;9.252;2024-03-06T05:27:07;10.40;;;6.15;;
70733;SDS011;58320;48.804;9.252;2024-03-06T05:29:34;9.07;;;6.22;;
70733;SDS011;58320;48.804;9.252;2024-03-06T05:32:01;9.23;;;5.43;;
70733;SDS011;58320;48.804;9.252;2024-03-06T05:34:28;12.17;;;5.97;;
70733;SDS011;58320;48.804;9.252;2024-03-06T05:36:54;16.20;;;6.50;;
70733;SDS011;58320;48.804;9.252;2024-03-06T05:39:20;10.90;;;6.30;;
70733;SDS011;58320;48.804;9.252;2024-03-06T05:41:46;11.15;;;5.82;;
70733;SDS011;58320;48.804;9.252;2024-03-06T05:44:12;10.53;;;6.43;;
70733;SDS011;58320;48.804;9.252;2024-03-06T05:46:38;11.23;;;6.07;;
70733;SDS011;58320;48.804;9.252;2024-03-06T05:49:03;11.13;;;6.37;;
70733;SDS011;58320;48.804;9.252;2024-03-06T05:51:29;13.60;;;6.37;;
70733;SDS011;58320;48.804;9.252;2024-03-06T05:53:55;11.77;;;6.90;;
70733;SDS011;58320;48.804;9.252;2024-03-06T05:56:21;15.65;;;7.28;;
70733;SDS011;58320;48.804;9.252;2024-03-06T05:58:47;14.17;;;5.90;;
70733;SDS011;58320;48.804;9.252;2024-03-06T06:01:17;11.13;;;6.38;;
70733;SDS011;58320;48.804;9.252;2024-03-06T06:03:46;10.55;;;6.18;;
70733;SDS011;58320;48.804;9.252;2024-03-06T06:06:16;10.93;;;6.15;;
70733;SDS011;58320;48.804;9.252;2024-03-06T06:08:44;12.27;;;6.32;;
70733;SDS011;58320;48.804;9.252;2024-03-06T06:11:10;10.57;;;6.13;;
70733;SDS011;58320;48.804;9.252;2024-03-06T06:13:36;11.52;;;6.65;;
70733;SDS011;58320;48.804;9.252;2024-03-06T06:16:04;13.10;;;6.60;;
70733;SDS011;58320;48.804;9.252;2024-03-06T06:18:30;11.20;;;6.57;;
70733;SDS011;58320;48.804;9.252;2024-03-06T06:20:57;11.88;;;6.30;;
70733;SDS011;58320;48.804;9.252;2024-03-06T06:23:23;10.53;;;6.50;;
70733;SDS011;58320;48.804;9.252;2024-03-06T06:25:49;11.10;;;6.80;;
70733;SDS011;58320;48.804;9.252;2024-03-06T06:28:16;12.35;;;6.05;;
70733;SDS011;58320;48.804;9.252;2024-03-06T06:30:42;10.82;;;6.63;;
70733;SDS011;58320;48.804;9.252;2024-03-06T06:33:07;10.67;;;5.93;;
70733;SDS011;58320;48.804;9.252;2024-03-06T06:35:33;11.57;;;6.50;;
70733;SDS011;58320;48.804;9.252;2024-03-06T06:38:02;11.85;;;6.30;;
70733;SDS011;58320;48.804;9.252;2024-03-06T06:40:30;9.98;;;6.20;;
70733;SDS011;58320;48.804;9.252;2024-03-06T06:42:56;10.83;;;6.47;;
70733;SDS011;58320;48.804;9.252;2024-03-06T06:45:22;11.23;;;6.72;;
70733;SDS011;58320;48.804;9.252;2024-03-06T06:47:48;10.90;;;5.82;;
70733;SDS011;58320;48.804;9.252;2024-03-06T06:50:16;13.18;;;6.90;;
70733;SDS011;58320;48.804;9.252;2024-03-06T06:52:42;13.90;;;6.40;;
70733;SDS011;58320;48.804;9.252;2024-03-06T06:55:08;12.57;;;6.50;;
70733;SDS011;58320;48.804;9.252;2024-03-06T06:57:36;12.13;;;6.53;;
70733;SDS011;58320;48.804;9.252;2024-03-06T07:00:05;10.93;;;6.60;;
70733;SDS011;58320;48.804;9.252;2024-03-06T07:02:42;10.75;;;6.45;;
70733;SDS011;58320;48.804;9.252;2024-03-06T07:05:08;11.13;;;6.20;;
70733;SDS011;58320;48.804;9.252;2024-03-06T07:07:35;11.40;;;6.63;;
70733;SDS011;58320;48.804;9.252;2024-03-06T07:10:01;11.60;;;6.68;;
70733;SDS011;58320;48.804;9.252;2024-03-06T07:12:28;12.93;;;6.60;;
70733;SDS011;58320;48.804;9.252;2024-03-06T07:14:54;10.83;;;6.40;;
70733;SDS011;58320;48.804;9.252;2024-03-06T07:17:20;11.63;;;6.78;;
70733;SDS011;58320;48.804;9.252;2024-03-06T07:19:45;14.60;;;7.87;;
70733;SDS011;58320;48.804;9.252;2024-03-06T07:22:11;11.73;;;6.20;;
70733;SDS011;58320;48.804;9.252;2024-03-06T07:24:37;10.35;;;6.47;;
70733;SDS011;58320;48.804;9.252;2024-03-06T07:27:03;12.35;;;6.25;;
70733;SDS011;58320;48.804;9.252;2024-03-06T07:29:30;15.32;;;6.88;;
70733;SDS011;58320;48.804;9.252;2024-03-06T07:31:55;11.97;;;6.67;;
70733;SDS011;58320;48.804;9.252;2024-03-06T07:34:21;12.80;;;6.68;;
70733;SDS011;58320;48.804;9.252;2024-03-06T07:36:47;15.33;;;7.07;;
70733;SDS011;58320;48.804;9.252;2024-03-06T07:39:18;11.93;;;6.63;;
70733;SDS011;58320;48.804;9.252;2024-03-06T07:41:45;13.23;;;6.95;;
70733;SDS011;58320;48.804;9.252;2024-03-06T07:44:11;11.25;;;6.95;;
70733;SDS011;58320;48.804;9.252;2024-03-06T07:46:36;13.33;;;6.97;;
70733;SDS011;58320;48.804;9.252;2024-03-06T07:49:02;10.23;;;5.70;;
70733;SDS011;58320;48.804;9.252;2024-03-06T07:51:30;10.18;;;6.35;;
70733;SDS011;58320;48.804;9.252;2024-03-06T07:53:56;13.57;;;6.82;;
70733;SDS011;58320;48.804;9.252;2024-03-06T07:56:22;10.73;;;6.57;;
70733;SDS011;58320;48.804;9.252;2024-03-06T07:58:49;14.25;;;6.63;;
70733;SDS011;58320;48.804;9.252;2024-03-06T08:01:15;10.90;;;5.70;;
70733;SDS011;58320;48.804;9.252;2024-03-06T08:03:41;11.38;;;6.45;;
70733;SDS011;58320;48.804;9.252;2024-03-06T08:06:08;12.45;;;6.55;;
70733;SDS011;58320;48.804;9.252;2024-03-06T08:08:34;10.88;;;6.10;;
70733;SDS011;58320;48.804;9.252;2024-03-06T08:11:01;10.98;;;6.57;;
70733;SDS011;58320;48.804;9.252;2024-03-06T08:13:28;12.60;;;6.43;;
70733;SDS011;58320;48.804;9.252;2024-03-06T08:15:54;12.75;;;6.68;;
70733;SDS011;58320;48.804;9.252;2024-03-06T08:18:19;11.95;;;6.60;;
70733;SDS011;58320;48.804;9.252;2024-03-06T08:20:45;14.17;;;6.87;;
70733;SDS011;58320;48.804;9.252;2024-03-06T08:23:11;13.45;;;7.22;;
70733;SDS011;58320;48.804;9.252;2024-03-06T08:25:37;12.23;;;6.67;;
70733;SDS011;58320;48.804;9.252;2024-03-06T08:28:02;11.25;;;6.55;;
70733;SDS011;58320;48.804;9.252;2024-03-06T08:30:29;10.80;;;6.55;;
70733;SDS011;58320;48.804;9.252;2024-03-06T08:32:57;10.52;;;6.18;;
70733;SDS011;58320;48.804;9.252;2024-03-06T08:35:23;12.23;;;6.33;;
70733;SDS011;58320;48.804;9.252;2024-03-06T08:37:49;14.98;;;6.88;;
70733;SDS011;58320;48.804;9.252;2024-03-06T08:40:16;11.25;;;6.30;;
70733;SDS011;58320;48.804;9.252;2024-03-06T08:42:48;12.75;;;6.53;;
70733;SDS011;58320;48.804;9.252;2024-03-06T08:45:15;11.63;;;6.50;;
70733;SDS011;58320;48.804;9.252;2024-03-06T08:47:45;11.27;;;6.50;;
70733;SDS011;58320;48.804;9.252;2024-03-06T08:50:12;10.88;;;5.65;;
70733;SDS011;58320;48.804;9.252;2024-03-06T08:52:39;11.52;;;5.78;;
70733;SDS011;58320;48.804;9.252;2024-03-06T08:55:06;12.52;;;6.40;;
70733;SDS011;58320;48.804;9.252;2024-03-06T08:57:35;10.15;;;6.43;;
70733;SDS011;58320;48.804;9.252;2024-03-06T09:00:02;11.43;;;7.47;;
70733;SDS011;58320;48.804;9.252;2024-03-06T09:02:33;11.43;;;6.80;;
70733;SDS011;58320;48.804;9.252;2024-03-06T09:04:59;11.02;;;6.55;;
70733;SDS011;58320;48.804;9.252;2024-03-06T09:07:25;13.20;;;7.10;;
70733;SDS011;58320;48.804;9.252;2024-03-06T09:09:51;13.98;;;7.50;;
70733;SDS011;58320;48.804;9.252;2024-03-06T09:12:17;14.30;;;8.40;;
70733;SDS011;58320;48.804;9.252;2024-03-06T09:14:44;17.60;;;7.97;;
70733;SDS011;58320;48.804;9.252;2024-03-06T09:17:10;13.00;;;7.40;;
70733;SDS011;58320;48.804;9.252;2024-03-06T09:19:39;14.00;;;8.05;;
70733;SDS011;58320;48.804;9.252;2024-03-06T09:22:06;12.57;;;8.30;;
70733;SDS011;58320;48.804;9.252;2024-03-06T09:24:32;13.88;;;7.90;;
70733;SDS011;58320;48.804;9.252;2024-03-06T09:27:00;14.52;;;8.23;;
70733;SDS011;58320;48.804;9.252;2024-03-06T09:29:26;18.27;;;9.10;;
70733;SDS011;58320;48.804;9.252;2024-03-06T09:31:52;15.07;;;9.18;;
70733;SDS011;58320;48.804;9.252;2024-03-06T09:34:17;14.33;;;8.53;;
70733;SDS011;58320;48.804;9.252;2024-03-06T09:36:47;14.53;;;9.40;;
70733;SDS011;58320;48.804;9.252;2024-03-06T09:39:14;18.10;;;9.98;;
70733;SDS011;58320;48.804;9.252;2024-03-06T09:41:43;15.88;;;9.80;;
70733;SDS011;58320;48.804;9.252;2024-03-06T09:44:09;14.15;;;8.85;;
70733;SDS011;58320;48.804;9.252;2024-03-06T09:46:35;16.87;;;9.77;;
70733;SDS011;58320;48.804;9.252;2024-03-06T09:49:01;14.63;;;9.30;;
70733;SDS011;58320;48.804;9.252;2024-03-06T09:51:28;16.17;;;8.93;;
70733;SDS011;58320;48.804;9.252;2024-03-06T09:53:54;15.98;;;8.88;;
70733;SDS011;58320;48.804;9.252;2024-03-06T09:56:20;13.93;;;9.13;;
70733;SDS011;58320;48.804;9.252;2024-03-06T09:58:46;12.80;;;8.43;;
70733;SDS011;58320;48.804;9.252;2024-03-06T10:01:12;14.63;;;9.07;;
70733;SDS011;58320;48.804;9.252;2024-03-06T10:03:39;16.63;;;9.32;;
70733;SDS011;58320;48.804;9.252;2024-03-06T10:06:08;17.02;;;10.07;;
70733;SDS011;58320;48.804;9.252;2024-03-06T10:08:34;17.67;;;10.80;;
70733;SDS011;58320;48.804;9.252;2024-03-06T10:11:02;18.92;;;11.10;;
70733;SDS011;58320;48.804;9.252;2024-03-06T10:13:29;20.40;;;11.48;;
70733;SDS011;58320;48.804;9.252;2024-03-06T10:15:59;20.63;;;11.23;;
70733;SDS011;58320;48.804;9.252;2024-03-06T10:18:27;21.50;;;11.93;;
70733;SDS011;58320;48.804;9.252;2024-03-06T10:20:55;22.80;;;12.63;;
70733;SDS011;58320;48.804;9.252;2024-03-06T10:23:21;21.55;;;12.80;;
70733;SDS011;58320;48.804;9.252;2024-03-06T10:25:47;21.40;;;13.93;;
70733;SDS011;58320;48.804;9.252;2024-03-06T10:28:20;24.25;;;12.95;;
70733;SDS011;58320;48.804;9.252;2024-03-06T10:30:48;24.60;;;14.48;;
70733;SDS011;58320;48.804;9.252;2024-03-06T10:33:15;20.27;;;12.53;;
70733;SDS011;58320;48.804;9.252;2024-03-06T10:35:46;23.58;;;13.32;;
70733;SDS011;58320;48.804;9.252;2024-03-06T10:38:13;22.27;;;13.93;;
70733;SDS011;58320;48.804;9.252;2024-03-06T10:40:42;24.15;;;13.82;;
70733;SDS011;58320;48.804;9.252;2024-03-06T10:43:09;25.92;;;14.80;;
70733;SDS011;58320;48.804;9.252;2024-03-06T10:45:51;26.17;;;14.23;;
70733;SDS011;58320;48.804;9.252;2024-03-06T10:48:26;22.80;;;14.48;;
70733;SDS011;58320;48.804;9.252;2024-03-06T10:50:53;23.27;;;14.48;;
70733;SDS011;58320;48.804;9.252;2024-03-06T10:53:20;23.08;;;13.63;;
70733;SDS011;58320;48.804;9.252;2024-03-06T10:55:48;27.45;;;14.52;;
70733;SDS011;58320;48.804;9.252;2024-03-06T10:58:15;27.00;;;15.53;;
70733;SDS011;58320;48.804;9.252;2024-03-06T11:00:47;29.33;;;15.93;;
70733;SDS011;58320;48.804;9.252;2024-03-06T11:03:13;26.40;;;15.38;;
70733;SDS011;58320;48.804;9.252;2024-03-06T11:05:43;30.92;;;16.52;;
70733;SDS011;58320;48.804;9.252;2024-03-06T11:08:12;30.05;;;16.13;;
70733;SDS011;58320;48.804;9.252;2024-03-06T11:10:40;27.77;;;15.50;;
70733;SDS011;58320;48.804;9.252;2024-03-06T11:15:46;32.17;;;16.83;;
70733;SDS011;58320;48.804;9.252;2024-03-06T11:23:28;32.17;;;17.37;;
70733;SDS011;58320;48.804;9.252;2024-03-06T11:28:28;31.67;;;16.63;;
70733;SDS011;58320;48.804;9.252;2024-03-06T11:33:44;31.95;;;16.20;;
70733;SDS011;58320;48.804;9.252;2024-03-06T11:36:13;29.47;;;17.10;;
70733;SDS011;58320;48.804;9.252;2024-03-06T11:41:28;29.00;;;17.10;;
70733;SDS011;58320;48.804;9.252;2024-03-06T11:44:01;33.78;;;16.92;;
70733;SDS011;58320;48.804;9.252;2024-03-06T11:46:40;35.30;;;17.70;;
70733;SDS011;58320;48.804;9.252;2024-03-06T11:49:15;34.83;;;17.50;;
70733;SDS011;58320;48.804;9.252;2024-03-06T11:51:45;31.52;;;18.05;;
70733;SDS011;58320;48.804;9.252;2024-03-06T11:54:14;35.42;;;17.95;;
70733;SDS011;58320;48.804;9.252;2024-03-06T11:56:40;36.35;;;17.95;;
70733;SDS011;58320;48.804;9.252;2024-03-06T11:59:09;33.40;;;17.45;;
70733;SDS011;58320;48.804;9.252;2024-03-06T12:01:34;32.23;;;18.27;;
70733;SDS011;58320;48.804;9.252;2024-03-06T12:04:03;33.72;;;17.48;;
70733;SDS011;58320;48.804;9.252;2024-03-06T12:06:32;35.95;;;18.45;;
70733;SDS011;58320;48.804;9.252;2024-03-06T12:08:59;37.43;;;18.03;;
70733;SDS011;58320;48.804;9.252;2024-03-06T12:11:25;35.60;;;18.60;;
70733;SDS011;58320;48.804;9.252;2024-03-06T12:13:51;34.00;;;18.92;;
70733;SDS011;58320;48.804;9.252;2024-03-06T12:16:17;33.00;;;17.23;;
70733;SDS011;58320;48.804;9.252;2024-03-06T12:18:43;32.93;;;16.73;;
70733;SDS011;58320;48.804;9.252;2024-03-06T12:21:10;35.00;;;16.95;;
70733;SDS011;58320;48.804;9.252;2024-03-06T12:23:36;33.97;;;18.13;;
70733;SDS011;58320;48.804;9.252;2024-03-06T12:26:02;36.13;;;18.33;;
70733;SDS011;58320;48.804;9.252;2024-03-06T12:28:29;34.53;;;17.88;;
70733;SDS011;58320;48.804;9.252;2024-03-06T12:30:55;35.00;;;19.45;;
70733;SDS011;58320;48.804;9.252;2024-03-06T12:33:23;37.05;;;18.38;;
70733;SDS011;58320;48.804;9.252;2024-03-06T12:36:00;36.20;;;17.63;;
70733;SDS011;58320;48.804;9.252;2024-03-06T12:38:30;40.85;;;18.70;;
70733;SDS011;58320;48.804;9.252;2024-03-06T12:40:56;32.53;;;18.52;;
70733;SDS011;58320;48.804;9.252;2024-03-06T12:43:23;36.42;;;17.33;;
70733;SDS011;58320;48.804;9.252;2024-03-06T12:45:50;34.42;;;18.15;;
70733;SDS011;58320;48.804;9.252;2024-03-06T12:48:19;35.23;;;17.60;;
70733;SDS011;58320;48.804;9.252;2024-03-06T12:50:48;38.15;;;18.67;;
70733;SDS011;58320;48.804;9.252;2024-03-06T12:53:20;36.53;;;18.48;;
70733;SDS011;58320;48.804;9.252;2024-03-06T12:55:47;35.17;;;18.73;;
70733;SDS011;58320;48.804;9.252;2024-03-06T12:58:13;36.25;;;18.27;;
70733;SDS011;58320;48.804;9.252;2024-03-06T13:00:39;33.57;;;17.20;;
70733;SDS011;58320;48.804;9.252;2024-03-06T13:03:06;33.42;;;16.60;;
70733;SDS011;58320;48.804;9.252;2024-03-06T13:05:32;37.65;;;18.50;;
70733;SDS011;58320;48.804;9.252;2024-03-06T13:07:58;33.13;;;16.98;;
70733;SDS011;58320;48.804;9.252;2024-03-06T13:10:24;37.47;;;17.60;;
70733;SDS011;58320;48.804;9.252;2024-03-06T13:12:50;32.67;;;17.47;;
70733;SDS011;58320;48.804;9.252;2024-03-06T13:15:16;34.55;;;17.60;;
70733;SDS011;58320;48.804;9.252;2024-03-06T13:17:42;37.80;;;19.17;;
70733;SDS011;58320;48.804;9.252;2024-03-06T13:20:08;36.63;;;17.80;;
70733;SDS011;58320;48.804;9.252;2024-03-06T13:22:34;35.60;;;17.98;;
70733;SDS011;58320;48.804;9.252;2024-03-06T13:25:00;34.30;;;19.15;;
70733;SDS011;58320;48.804;9.252;2024-03-06T13:27:26;36.90;;;19.00;;
70733;SDS011;58320;48.804;9.252;2024-03-06T13:29:52;40.73;;;20.37;;
70733;SDS011;58320;48.804;9.252;2024-03-06T13:32:18;37.95;;;19.58;;
70733;SDS011;58320;48.804;9.252;2024-03-06T13:34:44;39.50;;;20.53;;
70733;SDS011;58320;48.804;9.252;2024-03-06T13:37:10;37.35;;;19.52;;
70733;SDS011;58320;48.804;9.252;2024-03-06T13:39:36;37.70;;;20.48;;
70733;SDS011;58320;48.804;9.252;2024-03-06T13:42:01;36.80;;;19.63;;
70733;SDS011;58320;48.804;9.252;2024-03-06T13:44:27;40.63;;;20.67;;
70733;SDS011;58320;48.804;9.252;2024-03-06T13:46:53;36.50;;;19.23;;
70733;SDS011;58320;48.804;9.252;2024-03-06T13:49:35;38.93;;;19.43;;
70733;SDS011;58320;48.804;9.252;2024-03-06T13:52:04;39.53;;;19.70;;
70733;SDS011;58320;48.804;9.252;2024-03-06T13:54:30;39.70;;;19.92;;
70733;SDS011;58320;48.804;9.252;2024-03-06T13:56:56;38.50;;;20.00;;
70733;SDS011;58320;48.804;9.252;2024-03-06T13:59:27;38.42;;;20.15;;
70733;SDS011;58320;48.804;9.252;2024-03-06T14:01:56;36.55;;;19.60;;
70733;SDS011;58320;48.804;9.252;2024-03-06T14:04:24;36.97;;;19.00;;
70733;SDS011;58320;48.804;9.252;2024-03-06T14:06:49;39.92;;;19.63;;
70733;SDS011;58320;48.804;9.252;2024-03-06T14:09:15;38.58;;;19.08;;
70733;SDS011;58320;48.804;9.252;2024-03-06T14:11:41;42.10;;;20.90;;
70733;SDS011;58320;48.804;9.252;2024-03-06T14:14:07;40.40;;;20.13;;
70733;SDS011;58320;48.804;9.252;2024-03-06T14:16:33;43.83;;;21.60;;
70733;SDS011;58320;48.804;9.252;2024-03-06T14:19:00;40.10;;;19.17;;
70733;SDS011;58320;48.804;9.252;2024-03-06T14:21:26;39.58;;;19.58;;
70733;SDS011;58320;48.804;9.252;2024-03-06T14:23:51;39.75;;;20.05;;
70733;SDS011;58320;48.804;9.252;2024-03-06T14:26:17;40.67;;;19.85;;
70733;SDS011;58320;48.804;9.252;2024-03-06T14:28:43;40.33;;;19.33;;
70733;SDS011;58320;48.804;9.252;2024-03-06T14:31:09;42.53;;;20.60;;
70733;SDS011;58320;48.804;9.252;2024-03-06T14:33:35;40.72;;;19.23;;
70733;SDS011;58320;48.804;9.252;2024-03-06T14:36:04;39.50;;;18.87;;
70733;SDS011;58320;48.804;9.252;2024-03-06T14:38:30;39.33;;;19.35;;
70733;SDS011;58320;48.804;9.252;2024-03-06T14:40:56;37.97;;;19.05;;
70733;SDS011;58320;48.804;9.252;2024-03-06T14:43:21;36.23;;;18.87;;
70733;SDS011;58320;48.804;9.252;2024-03-06T14:45:47;39.17;;;19.80;;
70733;SDS011;58320;48.804;9.252;2024-03-06T14:48:13;40.60;;;20.25;;